Flushing, NY (11358)

11:00 PM EDT on August 22, 2014 (GMT -0400)
Meadow Lake | Change Station
CLOSE
Current Station
Personal Weather Station
Location: New York, NY
Elevation: -10 ft
Nearby Weather Stations

Elev -10 ft 40.73 °N, 73.84 °W | Updated 12 minutes ago

Overcast
Overcast
69.5 °F
Feels Like 69.5 °F
N
0.7
Wind Variable Wind from ENE
Gusts 4.0 mph

Today
High -- | Low -- °F
--% Chance of Precip.
Yesterday
High -- | Low -- °F
Precip. -- in
6:12 AM 7:43 PM
Waning Crescent, 5% visible
Pressure 30.05 in
Visibility 10.0 miles
Clouds Few 2200 ft
Mostly Cloudy 5000 ft
Overcast 8500 ft
Dew Point 63 °F
Humidity 78%
Rainfall -999.00 in
Snow Depth Not available.
UV 0 out of 12
Pollen 5.90 out of 12
Air Quality Not available.
Flu Activity Not available.
METAR KLGA 230251Z 08007KT 10SM FEW022 BKN050 OVC085 21/16 A3005 RMK AO2 SLP176 T02110161 51006

More Conditions Fewer Conditions

Pressure 30.05 in
Visibility 10.0 miles
Clouds Few 2200 ft
Mostly Cloudy 5000 ft
Overcast 8500 ft
Dew Point 63 °F
Humidity 78%
Rainfall -999.00 in
Snow Depth Not available.
UV 0 out of 12
Pollen 5.90 out of 12
Air Quality Not available.
Flu Activity Not available.
METAR KLGA 230251Z 08007KT 10SM FEW022 BKN050 OVC085 21/16 A3005 RMK AO2 SLP176 T02110161 51006

More Conditions Fewer Conditions

10-Day Weather Forecast

Almanac

Astronomy

Aug. 22, 2014 Rise Set
Actual Time 6:12 AM EDT 7:43 PM EDT
Civil Twilight 5:43 AM EDT 8:11 PM EDT
Nautical Twilight 5:08 AM EDT 8:46 PM EDT
Astronomical Twilight 4:31 AM EDT 9:23 PM EDT
Moon 3:32 AM EDT (8/22) 5:50 PM EDT (8/22)
Length of Visible Light 14h 28m
Length of Day
13h 30m
Tomorrow will be 2m 30s shorter.
Waning Crescent, 5% of the Moon is Illuminated
Today
Waning Crescent
Aug 25
New
Sep 2
First Quarter
Sep 8
Full
Sep 15
Last Quarter

Today's Extremes

State Highs State Lows

Community

WunderPhotos

Upload Photos

1,746,348 photos uploaded!

WunderBlogs® & News

Nearby

Snow Depth

Station Depth Elevation
No new snow has been reported.

Earthquake Activity

City Distance Mag. Time & Date
No recent earthquake activity has been reported nearby.
Minimum magnitude displayed is 2.5.

Coastal Water Temperatures

Place Temperature
Kings Point, NY 73.0 °F
Bridgeport, CT 75.0 °F

Nearby Weather Stations